Thunder radar more information blitzortung!


Radar de pluja more information rain snow radar


Visita la nostra xarxa de llocs de meteo:

Template documentation
and downloads

And another site



No particular awareness of the weather is required.    There are no Weather-warnings

Pagina Historial Weather Underground text

Diari Resum Juliol 15, 2017 Unitats:  Mètric    Imperial   Tant
« Previous Dia
SegĂźent Dia »
Diari Setmana Mensual Anual Personalitzada
  Maxima: Minima: Media:
Temperatura: 34.6 °C 24.2 °C 30.1 °C
Punt de rosada: 20.7 °C 17.4 °C 18.6 °C
Humitat: 73 % 40 % 51 %
Wind Speed: 22.2 km/h 3.7 km/h 9.4 km/h
RĂ fegues de vent: 22.2 km/h - -
Vent:- - SSW
Pression baro: 1018.8 hPa 1013.8 hPa -
Precipitacions: 0.0 mm    
Historical Graphs
 
 
Dades de taula per Juliol 15, 2017
Temps Temperatura Punt de rosada Pression baro Vent Wind Speed RĂ fegues de vent Humitat Rainfall Rate (Hourly)
00:04 24.5 °C 19.3 °C 1017.8 hPa WSW 3.7 km/h 3.7 km/h 73 % 0.0 mm
10:32 26.9 °C 20.3 °C 1017.8 hPa West 3.7 km/h 4.3 km/h 67 % 0.0 mm
10:37 26.9 °C 20.0 °C 1018.8 hPa ESE 5.6 km/h 5.6 km/h 66 % 0.0 mm
10:42 26.9 °C 20.0 °C 1018.8 hPa ENE 5.6 km/h 5.6 km/h 66 % 0.0 mm
10:47 27.4 °C 20.2 °C 1018.8 hPa SSE 4.7 km/h 4.7 km/h 65 % 0.0 mm
10:52 27.6 °C 20.2 °C 1017.8 hPa ESE 5.6 km/h 5.6 km/h 64 % 0.0 mm
10:57 27.8 °C 20.4 °C 1017.8 hPa South 3.9 km/h 3.9 km/h 64 % 0.0 mm
10:58 27.8 °C 20.4 °C 1017.8 hPa South 3.9 km/h 3.9 km/h 64 % 0.0 mm
11:03 28.4 °C 20.7 °C 1017.8 hPa South 5.6 km/h 5.6 km/h 63 % 0.0 mm
11:08 28.7 °C 20.7 °C 1017.8 hPa SSE 6.1 km/h 6.1 km/h 62 % 0.0 mm
11:13 28.5 °C 20.0 °C 1017.8 hPa SW 9.3 km/h 9.3 km/h 60 % 0.0 mm
11:18 29.2 °C 20.4 °C 1017.8 hPa SW 10.3 km/h 10.3 km/h 59 % 0.0 mm
11:23 29.4 °C 19.7 °C 1017.8 hPa SE 10.0 km/h 10.0 km/h 56 % 0.0 mm
11:28 29.7 °C 19.7 °C 1017.8 hPa SE 7.4 km/h 7.4 km/h 55 % 0.0 mm
11:33 29.9 °C 19.6 °C 1017.8 hPa SSE 5.6 km/h 5.6 km/h 54 % 0.0 mm
11:38 30.3 °C 19.9 °C 1016.8 hPa East 5.6 km/h 5.6 km/h 54 % 0.0 mm
11:43 30.6 °C 20.2 °C 1016.8 hPa SW 3.9 km/h 3.9 km/h 54 % 0.0 mm
11:48 30.9 °C 20.5 °C 1016.8 hPa SW 6.9 km/h 6.9 km/h 54 % 0.0 mm
11:53 30.6 °C 19.6 °C 1015.8 hPa SW 9.3 km/h 9.3 km/h 52 % 0.0 mm
11:58 31.0 °C 19.3 °C 1015.8 hPa SW 6.9 km/h 6.9 km/h 50 % 0.0 mm
12:00 31.1 °C 19.4 °C 1015.8 hPa SW 9.3 km/h 9.3 km/h 50 % 0.0 mm
12:05 31.3 °C 19.6 °C 1015.8 hPa WSW 9.7 km/h 9.7 km/h 50 % 0.0 mm
12:10 31.5 °C 19.5 °C 1015.8 hPa SSE 5.6 km/h 5.6 km/h 49 % 0.0 mm
12:15 32.1 °C 19.0 °C 1015.8 hPa South 5.8 km/h 5.8 km/h 46 % 0.0 mm
12:20 32.1 °C 19.4 °C 1015.8 hPa SSW 5.6 km/h 5.6 km/h 47 % 0.0 mm
12:25 32.1 °C 19.7 °C 1015.8 hPa SSW 9.3 km/h 9.3 km/h 48 % 0.0 mm
12:30 31.8 °C 19.4 °C 1015.8 hPa SSW 7.4 km/h 7.4 km/h 48 % 0.0 mm
12:35 32.0 °C 19.3 °C 1015.8 hPa NNW 5.6 km/h 5.6 km/h 47 % 0.0 mm
12:40 31.8 °C 18.8 °C 1015.8 hPa SSW 11.1 km/h 11.1 km/h 46 % 0.0 mm
12:45 31.6 °C 18.6 °C 1015.8 hPa WNW 7.4 km/h 7.4 km/h 46 % 0.0 mm
12:50 32.2 °C 18.8 °C 1015.8 hPa SSW 5.6 km/h 5.6 km/h 45 % 0.0 mm
12:55 32.8 °C 19.3 °C 1014.8 hPa WSW 5.8 km/h 5.8 km/h 45 % 0.0 mm
13:00 32.7 °C 19.2 °C 1014.8 hPa South 13.0 km/h 13.0 km/h 45 % 0.0 mm
13:05 32.3 °C 18.8 °C 1014.8 hPa SE 5.6 km/h 5.6 km/h 45 % 0.0 mm
13:10 33.0 °C 19.1 °C 1015.8 hPa South 7.4 km/h 7.4 km/h 44 % 0.0 mm
13:15 32.1 °C 18.7 °C 1015.8 hPa West 10.3 km/h 10.3 km/h 45 % 0.0 mm
13:20 32.1 °C 18.3 °C 1015.8 hPa WNW 7.4 km/h 7.4 km/h 44 % 0.0 mm
13:25 32.6 °C 18.8 °C 1015.8 hPa SW 7.4 km/h 7.4 km/h 44 % 0.0 mm
13:30 32.8 °C 18.9 °C 1015.8 hPa SSW 4.2 km/h 4.2 km/h 44 % 0.0 mm
13:35 32.7 °C 19.2 °C 1015.8 hPa SSW 7.4 km/h 7.4 km/h 45 % 0.0 mm
13:40 32.8 °C 19.3 °C 1015.8 hPa SW 7.4 km/h 7.4 km/h 45 % 0.0 mm
13:41 33.0 °C 19.1 °C 1015.8 hPa East 3.7 km/h 3.7 km/h 44 % 0.0 mm
13:46 33.4 °C 19.1 °C 1015.8 hPa ENE 9.3 km/h 9.3 km/h 43 % 0.0 mm
13:51 33.0 °C 19.1 °C 1015.8 hPa ESE 5.6 km/h 5.6 km/h 44 % 0.0 mm
13:56 32.9 °C 19.4 °C 1015.8 hPa WSW 13.0 km/h 13.0 km/h 45 % 0.0 mm
14:01 32.2 °C 18.8 °C 1015.8 hPa South 9.3 km/h 9.3 km/h 45 % 0.0 mm
14:06 32.2 °C 18.8 °C 1015.8 hPa SSE 9.3 km/h 9.3 km/h 45 % 0.0 mm
14:11 32.6 °C 19.5 °C 1014.8 hPa SW 6.9 km/h 6.9 km/h 46 % 0.0 mm
14:16 33.0 °C 19.8 °C 1014.8 hPa SW 9.3 km/h 9.3 km/h 46 % 0.0 mm
14:21 32.4 °C 19.3 °C 1014.8 hPa SW 7.4 km/h 7.4 km/h 46 % 0.0 mm
14:26 32.6 °C 19.5 °C 1014.8 hPa WSW 14.8 km/h 14.8 km/h 46 % 0.0 mm
14:31 32.7 °C 19.6 °C 1014.8 hPa SW 11.1 km/h 11.1 km/h 46 % 0.0 mm
14:36 33.1 °C 19.6 °C 1014.8 hPa SSE 13.0 km/h 13.0 km/h 45 % 0.0 mm
14:41 33.4 °C 19.8 °C 1014.8 hPa WSW 3.9 km/h 4.2 km/h 45 % 0.0 mm
14:46 33.7 °C 20.1 °C 1014.8 hPa SW 10.3 km/h 10.3 km/h 45 % 0.0 mm
14:51 33.6 °C 19.7 °C 1014.8 hPa SW 18.5 km/h 18.5 km/h 44 % 0.0 mm
14:56 33.5 °C 19.6 °C 1014.8 hPa SSW 10.0 km/h 10.0 km/h 44 % 0.0 mm
15:01 33.4 °C 19.5 °C 1014.8 hPa WSW 5.0 km/h 5.0 km/h 44 % 0.0 mm
15:06 33.4 °C 19.5 °C 1014.8 hPa SW 16.7 km/h 16.7 km/h 44 % 0.0 mm
15:11 33.5 °C 19.2 °C 1014.8 hPa South 7.4 km/h 7.4 km/h 43 % 0.0 mm
15:16 34.0 °C 19.7 °C 1014.8 hPa West 5.6 km/h 5.6 km/h 43 % 0.0 mm
15:21 34.3 °C 19.9 °C 1014.8 hPa SW 5.6 km/h 5.6 km/h 43 % 0.0 mm
15:26 34.3 °C 19.9 °C 1015.8 hPa WSW 13.0 km/h 13.0 km/h 43 % 0.0 mm
15:31 34.1 °C 19.4 °C 1015.8 hPa SSW 5.6 km/h 6.1 km/h 42 % 0.0 mm
15:36 34.4 °C 19.6 °C 1015.8 hPa SSW 11.1 km/h 11.1 km/h 42 % 0.0 mm
15:41 34.2 °C 19.4 °C 1015.8 hPa SE 5.6 km/h 5.6 km/h 42 % 0.0 mm
15:46 33.9 °C 19.2 °C 1015.8 hPa SSW 7.4 km/h 7.4 km/h 42 % 0.0 mm
15:51 34.1 °C 19.4 °C 1015.8 hPa South 15.6 km/h 15.6 km/h 42 % 0.0 mm
15:56 33.8 °C 19.1 °C 1015.8 hPa South 11.1 km/h 11.1 km/h 42 % 0.0 mm
16:01 34.1 °C 19.4 °C 1015.8 hPa WNW 4.7 km/h 4.7 km/h 42 % 0.0 mm
16:06 34.5 °C 19.7 °C 1015.8 hPa WSW 5.6 km/h 5.6 km/h 42 % 0.0 mm
16:11 34.6 °C 19.4 °C 1014.8 hPa SW 9.3 km/h 9.3 km/h 41 % 0.0 mm
16:16 34.3 °C 19.2 °C 1014.8 hPa SW 14.8 km/h 14.8 km/h 41 % 0.0 mm
16:21 34.1 °C 19.0 °C 1014.8 hPa SW 14.8 km/h 14.8 km/h 41 % 0.0 mm
16:26 33.8 °C 18.3 °C 1014.8 hPa South 14.8 km/h 14.8 km/h 40 % 0.0 mm
16:31 33.4 °C 17.9 °C 1014.8 hPa WSW 13.0 km/h 13.0 km/h 40 % 0.0 mm
16:36 33.1 °C 17.7 °C 1014.8 hPa SSW 11.1 km/h 11.1 km/h 40 % 0.0 mm
16:41 33.2 °C 17.8 °C 1014.8 hPa WSW 13.0 km/h 13.0 km/h 40 % 0.0 mm
16:46 33.3 °C 17.9 °C 1014.8 hPa SSW 14.8 km/h 14.8 km/h 40 % 0.0 mm
16:51 33.8 °C 18.7 °C 1014.8 hPa SW 13.0 km/h 13.0 km/h 41 % 0.0 mm
16:56 32.7 °C 17.7 °C 1014.8 hPa West 16.7 km/h 16.7 km/h 41 % 0.0 mm
17:01 33.0 °C 18.0 °C 1014.8 hPa SSW 11.1 km/h 11.1 km/h 41 % 0.0 mm
17:06 33.2 °C 18.2 °C 1014.8 hPa SW 7.4 km/h 7.4 km/h 41 % 0.0 mm
17:11 32.6 °C 17.6 °C 1014.8 hPa West 13.0 km/h 13.0 km/h 41 % 0.0 mm
17:12 32.8 °C 18.2 °C 1014.8 hPa SSW 9.3 km/h 9.3 km/h 42 % 0.0 mm
17:17 33.1 °C 18.1 °C 1014.8 hPa SSW 13.0 km/h 13.0 km/h 41 % 0.0 mm
17:22 32.7 °C 18.1 °C 1014.8 hPa WSW 11.1 km/h 11.1 km/h 42 % 0.0 mm
17:27 32.6 °C 18.0 °C 1014.8 hPa South 11.1 km/h 11.1 km/h 42 % 0.0 mm
17:32 32.8 °C 18.2 °C 1014.8 hPa SSE 18.5 km/h 18.5 km/h 42 % 0.0 mm
17:37 32.2 °C 17.7 °C 1014.8 hPa SE 9.3 km/h 9.3 km/h 42 % 0.0 mm
17:42 32.2 °C 17.7 °C 1014.8 hPa South 13.0 km/h 13.0 km/h 42 % 0.0 mm
17:47 31.8 °C 17.7 °C 1014.8 hPa WSW 9.3 km/h 9.3 km/h 43 % 0.0 mm
17:52 32.2 °C 18.1 °C 1014.8 hPa SW 13.0 km/h 13.0 km/h 43 % 0.0 mm
17:57 31.9 °C 17.8 °C 1014.8 hPa WSW 9.3 km/h 9.3 km/h 43 % 0.0 mm
18:02 32.2 °C 18.1 °C 1014.8 hPa West 11.1 km/h 11.1 km/h 43 % 0.0 mm
18:07 32.0 °C 17.8 °C 1014.8 hPa SW 20.4 km/h 20.4 km/h 43 % 0.0 mm
18:12 31.7 °C 17.6 °C 1014.8 hPa SW 13.0 km/h 13.0 km/h 43 % 0.0 mm
18:17 31.3 °C 17.6 °C 1014.8 hPa WSW 16.7 km/h 16.7 km/h 44 % 0.0 mm
18:22 30.9 °C 17.6 °C 1014.8 hPa South 16.7 km/h 16.7 km/h 45 % 0.0 mm
18:27 30.9 °C 17.6 °C 1014.8 hPa SSW 14.8 km/h 14.8 km/h 45 % 0.0 mm
18:32 30.8 °C 17.5 °C 1014.8 hPa SW 22.2 km/h 22.2 km/h 45 % 0.0 mm
18:37 30.8 °C 17.5 °C 1013.8 hPa SW 18.5 km/h 18.5 km/h 45 % 0.0 mm
18:42 30.7 °C 17.4 °C 1013.8 hPa SW 14.8 km/h 14.8 km/h 45 % 0.0 mm
18:47 30.3 °C 17.4 °C 1013.8 hPa South 18.5 km/h 18.5 km/h 46 % 0.0 mm
18:52 30.4 °C 17.5 °C 1013.8 hPa SW 11.1 km/h 11.1 km/h 46 % 0.0 mm
18:57 30.3 °C 17.7 °C 1013.8 hPa North 12.6 km/h 12.6 km/h 47 % 0.0 mm
19:02 30.5 °C 17.9 °C 1013.8 hPa West 13.0 km/h 13.0 km/h 47 % 0.0 mm
19:07 30.4 °C 17.8 °C 1014.8 hPa SW 9.3 km/h 9.3 km/h 47 % 0.0 mm
19:12 30.2 °C 18.0 °C 1014.8 hPa SW 15.6 km/h 15.6 km/h 48 % 0.0 mm
19:17 30.3 °C 18.1 °C 1014.8 hPa SW 13.0 km/h 13.0 km/h 48 % 0.0 mm
19:22 29.9 °C 17.7 °C 1013.8 hPa WSW 9.3 km/h 9.3 km/h 48 % 0.0 mm
19:25 29.8 °C 17.9 °C 1013.8 hPa WSW 14.8 km/h 14.8 km/h 49 % 0.0 mm
19:30 29.4 °C 17.6 °C 1013.8 hPa South 16.7 km/h 16.7 km/h 49 % 0.0 mm
19:35 29.3 °C 17.8 °C 1013.8 hPa SW 15.8 km/h 15.8 km/h 50 % 0.0 mm
19:40 29.0 °C 17.5 °C 1014.8 hPa WSW 20.4 km/h 20.4 km/h 50 % 0.0 mm
19:45 28.9 °C 18.1 °C 1014.8 hPa WSW 13.0 km/h 13.0 km/h 52 % 0.0 mm
19:50 28.9 °C 18.1 °C 1014.8 hPa SW 11.1 km/h 11.1 km/h 52 % 0.0 mm
19:55 28.8 °C 17.9 °C 1014.8 hPa SW 9.3 km/h 9.3 km/h 52 % 0.0 mm
20:00 28.6 °C 17.8 °C 1014.8 hPa SSW 9.3 km/h 9.3 km/h 52 % 0.0 mm
20:05 28.5 °C 18.0 °C 1014.8 hPa WSW 12.2 km/h 12.2 km/h 53 % 0.0 mm
20:10 28.2 °C 17.7 °C 1014.8 hPa South 9.3 km/h 9.3 km/h 53 % 0.0 mm
20:15 28.3 °C 17.8 °C 1014.8 hPa WSW 3.7 km/h 3.9 km/h 53 % 0.0 mm
20:20 28.3 °C 17.8 °C 1014.8 hPa SW 9.7 km/h 9.7 km/h 53 % 0.0 mm
20:25 28.0 °C 17.8 °C 1014.8 hPa SW 14.8 km/h 14.8 km/h 54 % 0.0 mm
20:30 27.9 °C 17.7 °C 1014.8 hPa SSW 9.0 km/h 9.0 km/h 54 % 0.0 mm
20:35 27.8 °C 17.9 °C 1014.8 hPa WSW 9.3 km/h 9.3 km/h 55 % 0.0 mm
20:40 27.7 °C 17.8 °C 1015.8 hPa SSW 11.1 km/h 11.1 km/h 55 % 0.0 mm
20:45 27.5 °C 17.7 °C 1015.8 hPa SSW 11.1 km/h 11.1 km/h 55 % 0.0 mm
20:50 27.4 °C 17.8 °C 1015.8 hPa South 11.1 km/h 11.1 km/h 56 % 0.0 mm
20:55 27.2 °C 17.9 °C 1015.8 hPa SW 13.0 km/h 13.0 km/h 57 % 0.0 mm
21:00 27.1 °C 17.8 °C 1015.8 hPa WSW 13.0 km/h 13.0 km/h 57 % 0.0 mm
21:05 26.9 °C 17.9 °C 1015.8 hPa SW 11.1 km/h 11.1 km/h 58 % 0.0 mm
21:10 26.8 °C 18.1 °C 1015.8 hPa SSE 9.0 km/h 9.0 km/h 59 % 0.0 mm
21:15 26.6 °C 17.9 °C 1015.8 hPa SSW 11.1 km/h 11.1 km/h 59 % 0.0 mm
21:20 26.6 °C 18.2 °C 1015.8 hPa SSW 5.3 km/h 5.3 km/h 60 % 0.0 mm
21:25 26.4 °C 18.0 °C 1015.8 hPa SSW 7.4 km/h 7.4 km/h 60 % 0.0 mm
21:30 26.3 °C 17.9 °C 1015.8 hPa SW 13.0 km/h 13.0 km/h 60 % 0.0 mm
21:35 26.2 °C 18.1 °C 1015.8 hPa SW 9.3 km/h 9.3 km/h 61 % 0.0 mm
21:40 26.1 °C 18.0 °C 1015.8 hPa WSW 11.1 km/h 11.1 km/h 61 % 0.0 mm
21:45 26.0 °C 17.9 °C 1015.8 hPa South 7.4 km/h 7.4 km/h 61 % 0.0 mm
21:50 25.9 °C 18.1 °C 1015.8 hPa WSW 5.6 km/h 5.6 km/h 62 % 0.0 mm
21:55 25.9 °C 17.8 °C 1014.8 hPa SW 7.4 km/h 7.4 km/h 61 % 0.0 mm
22:00 25.8 °C 17.7 °C 1014.8 hPa SW 8.7 km/h 8.7 km/h 61 % 0.0 mm
22:05 25.7 °C 17.9 °C 1014.8 hPa SW 6.4 km/h 6.4 km/h 62 % 0.0 mm
22:10 25.6 °C 17.8 °C 1015.8 hPa SW 5.6 km/h 5.6 km/h 62 % 0.0 mm
22:15 25.5 °C 17.7 °C 1015.8 hPa WSW 5.6 km/h 5.6 km/h 62 % 0.0 mm
22:20 25.5 °C 17.7 °C 1015.8 hPa SW 5.6 km/h 5.6 km/h 62 % 0.0 mm
22:25 25.4 °C 17.8 °C 1015.8 hPa WSW 5.6 km/h 5.6 km/h 63 % 0.0 mm
22:30 25.3 °C 17.7 °C 1015.8 hPa SSW 3.7 km/h 3.7 km/h 63 % 0.0 mm
22:35 25.3 °C 17.7 °C 1015.8 hPa West 3.7 km/h 3.7 km/h 63 % 0.0 mm
22:40 25.2 °C 17.9 °C 1015.8 hPa WSW 5.6 km/h 5.6 km/h 64 % 0.0 mm
22:45 25.1 °C 17.8 °C 1015.8 hPa WSW 5.6 km/h 5.6 km/h 64 % 0.0 mm
22:50 25.0 °C 17.7 °C 1015.8 hPa WSW 6.4 km/h 6.4 km/h 64 % 0.0 mm
22:55 24.9 °C 18.1 °C 1015.8 hPa SW 4.7 km/h 4.7 km/h 66 % 0.0 mm
23:00 24.9 °C 18.1 °C 1015.8 hPa WSW 5.3 km/h 5.3 km/h 66 % 0.0 mm
23:05 24.9 °C 18.1 °C 1015.8 hPa West 3.7 km/h 3.7 km/h 66 % 0.0 mm
23:10 24.8 °C 18.0 °C 1015.8 hPa West 3.7 km/h 3.7 km/h 66 % 0.0 mm
23:15 24.8 °C 18.3 °C 1015.8 hPa WSW 3.9 km/h 3.9 km/h 67 % 0.0 mm
23:20 24.7 °C 18.2 °C 1015.8 hPa SW 5.6 km/h 5.6 km/h 67 % 0.0 mm
23:25 24.6 °C 18.1 °C 1016.8 hPa SW 5.6 km/h 5.6 km/h 67 % 0.0 mm
23:30 24.5 °C 18.2 °C 1016.8 hPa SW 7.4 km/h 7.4 km/h 68 % 0.0 mm
23:35 24.4 °C 18.1 °C 1016.8 hPa SW 5.6 km/h 5.6 km/h 68 % 0.0 mm
23:40 24.4 °C 18.3 °C 1016.8 hPa SSW 5.3 km/h 5.3 km/h 69 % 0.0 mm
23:45 24.3 °C 18.2 °C 1016.8 hPa SW 5.6 km/h 5.6 km/h 69 % 0.0 mm
23:50 24.3 °C 18.2 °C 1016.8 hPa SW 5.6 km/h 5.6 km/h 69 % 0.0 mm
23:55 24.2 °C 18.4 °C 1016.8 hPa WSW 7.4 km/h 7.4 km/h 70 % 0.0 mm
Meteo Sesrovires
Elogis d' Weather Underground - 3.25 mb

Guio original per  Jim McMurry - jmcmurry@mwt.net Adaptat per a la plantilla per  Wim van der Kuil - Leuven-Template.eu

Trobareu la nostra informacio del temps tambe a:

Weather Underground

AWEKAS